Vremea mâine în Berești - Romania

Vrei sa afli care e starea vremii acum in Galati - Romania? Dorim sa iti furnizam starea vremii pentru Galati - Romania. Starea vremii Galati - Romania pentru astazi.

Vremea mâine în Berești

Temperatura minimă:
8.4 °C

Temperatura maximă:
24 °C

Mâine va fi: Senin
Precipitații: 0 %
Umiditate: 60%
Viteza maximă vânt mâine:
19.1 km/h

Evoluția vremii in Berești pe ore mâine

Ora: 03:00
Temperatura: °C
Sansa de precipitatii: %
Ora Descriere Temp Se simte Precipitatii Umiditate Vant
00:00Senin12.3°11.1°0%64%S 12.2 KM/H
01:00Senin11.4°10.1°0%73%S 11.5 KM/H
02:00Senin10.5°9.1°0%79%S 11.2 KM/H
03:00Senin9.8°8.5°0%81%SSE 9.4 KM/H
04:00Senin9.1°7.7°0%81%SSE 9 KM/H
05:00Senin8.7°7.1°0%81%S 9.7 KM/H
06:00Senin8.4°6.9°0%83%S 9 KM/H
07:00Senin10.6°9.8°0%80%S 7.2 KM/H
08:00Senin13.4°12.5°0%73%S 11.5 KM/H
09:00Senin15.7°15.7°0%67%S 13.7 KM/H
10:00Senin18.1°18.1°0%61%SSW 16.2 KM/H
11:00Senin20.2°20.2°0%54%S 16.9 KM/H
12:00Senin21.8°21.8°0%48%S 17.3 KM/H
13:00Senin22.9°24.5°0%43%S 17.3 KM/H
14:00Senin23.6°24.6°0%39%S 17.3 KM/H
15:00Senin23.9°24.5°0%36%S 16.9 KM/H
16:00Senin24°24.5°0%35%S 17.3 KM/H
17:00Senin23.7°24.4°0%35%SSE 18.4 KM/H
18:00Senin23.1°24.2°0%37%SSE 17.6 KM/H
19:00Senin21.5°21.5°0%45%SSE 16.6 KM/H
20:00Senin17°17°0%56%SE 19.1 KM/H
21:00Senin14.5°13.5°0%61%SSE 14.8 KM/H
22:00Senin14°12.8°0%64%SSE 15.1 KM/H
23:0013.5°11.9°0%63%SSE 18.7 KM/H




tutorials